Terminal Aerodrome Forecast
Issued by NWS

Home | Current Version | Previous Version | Text Only | Print | Product List | Glossary On
Versions: 1 2 3 4 5 6 7 8 9 10 11 12 13 14 15 16 17 18 19
000
FTUS45 KBOI 171720
TAFMYL
TAF
KMYL 171720Z 1718/1818 VRB03KT P6SM SCT020 OVC040
     FM172300 VRB03KT P6SM VCSH OVC040
      TEMPO 1802/1806 1SM -SN OVC009
     FM181500 VRB03KT 1SM BR VCSH OVC001=

USA.gov is the U.S. government's official web portal to all federal, state and local government web resources and services.